createdAt,value
2024-01-31T00:01:48.140Z,132.00
2024-01-31T00:04:52.637Z,123.00
2024-01-31T00:07:57.214Z,91.75
2024-01-31T00:11:01.297Z,136.75
2024-01-31T00:14:08.800Z,137.25
2024-01-31T00:17:13.197Z,149.50
2024-01-31T00:20:17.382Z,148.75
2024-01-31T00:23:22.110Z,159.25
2024-01-31T00:26:25.740Z,148.50
2024-01-31T00:29:31.249Z,145.50
2024-01-31T00:32:35.036Z,131.00
2024-01-31T00:35:39.696Z,136.50
2024-01-31T00:38:43.447Z,135.75
2024-01-31T00:41:48.150Z,146.00
2024-01-31T00:44:53.178Z,159.25
2024-01-31T00:47:57.238Z,138.50
2024-01-31T00:51:00.980Z,130.50
2024-01-31T00:54:06.018Z,153.25
2024-01-31T00:57:09.868Z,151.25
2024-01-31T01:00:16.176Z,155.75
2024-01-31T01:03:21.062Z,174.00
2024-01-31T01:06:25.152Z,161.75
2024-01-31T01:09:28.776Z,157.00
2024-01-31T01:12:32.819Z,128.25
2024-01-31T01:15:38.179Z,149.75
2024-01-31T01:18:42.415Z,148.25
2024-01-31T01:21:46.173Z,156.00
2024-01-31T01:24:50.508Z,139.75
2024-01-31T01:27:54.328Z,169.75
2024-01-31T01:31:00.153Z,125.25
2024-01-31T01:34:03.994Z,172.00
2024-01-31T01:37:08.102Z,179.75
2024-01-31T01:40:12.436Z,137.00
2024-01-31T01:43:19.035Z,161.50
2024-01-31T01:46:25.612Z,158.75
2024-01-31T01:49:30.728Z,169.25
2024-01-31T01:52:35.860Z,164.00
2024-01-31T01:55:41.287Z,183.25
2024-01-31T01:58:45.605Z,183.75
2024-01-31T02:01:51.919Z,174.75
2024-01-31T02:04:56.125Z,166.75
2024-01-31T02:08:01.172Z,170.00
2024-01-31T02:11:05.287Z,194.00
2024-01-31T02:14:09.343Z,184.50
2024-01-31T02:17:14.590Z,76.50
2024-01-31T02:20:18.813Z,158.50
2024-01-31T02:23:24.344Z,169.50
2024-01-31T02:26:28.929Z,161.00
2024-01-31T02:29:32.616Z,192.00
2024-01-31T02:32:37.023Z,194.75
2024-01-31T02:35:41.004Z,153.75
2024-01-31T02:38:47.110Z,169.50
2024-01-31T02:41:51.040Z,164.00
2024-01-31T02:44:55.336Z,148.25
2024-01-31T02:47:59.203Z,160.75
2024-01-31T02:51:03.183Z,155.00
2024-01-31T02:54:08.518Z,162.50
2024-01-31T02:57:12.971Z,151.25
2024-01-31T03:00:17.879Z,151.50
2024-01-31T03:03:22.734Z,144.00
2024-01-31T03:06:26.748Z,148.00
2024-01-31T03:09:32.491Z,149.25
2024-01-31T03:12:36.292Z,128.25
2024-01-31T03:15:40.340Z,142.00
2024-01-31T03:18:44.049Z,154.50
2024-01-31T03:21:48.045Z,155.75
2024-01-31T03:24:53.218Z,138.25
2024-01-31T03:27:57.238Z,141.00
2024-01-31T03:31:00.979Z,133.00
2024-01-31T03:34:06.258Z,127.25
2024-01-31T03:37:10.167Z,131.50
2024-01-31T03:40:15.679Z,129.50
2024-01-31T03:43:19.398Z,111.00
2024-01-31T03:46:25.841Z,115.00
2024-01-31T03:49:29.742Z,139.25
2024-01-31T03:52:36.928Z,94.50
2024-01-31T03:55:42.702Z,124.00
2024-01-31T03:58:46.944Z,114.75
2024-01-31T04:01:52.075Z,135.50
2024-01-31T04:04:56.239Z,139.75
2024-01-31T04:08:00.037Z,126.75
2024-01-31T04:11:06.014Z,138.75
2024-01-31T04:14:09.882Z,146.25
2024-01-31T04:17:14.080Z,138.00
2024-01-31T04:20:18.197Z,77.00
2024-01-31T04:23:22.403Z,122.00
2024-01-31T04:26:27.929Z,127.75
2024-01-31T04:29:32.164Z,133.50
2024-01-31T04:32:36.411Z,199.25
2024-01-31T04:35:40.716Z,136.25
2024-01-31T04:38:44.491Z,127.00
2024-01-31T04:41:50.194Z,134.75
2024-01-31T04:44:53.924Z,129.25
2024-01-31T04:47:58.312Z,118.75
2024-01-31T04:51:04.675Z,114.25
2024-01-31T04:54:08.946Z,123.00
2024-01-31T04:57:14.297Z,131.25
2024-01-31T05:00:19.437Z,130.50
2024-01-31T05:03:23.543Z,117.50
2024-01-31T05:06:27.868Z,124.25
2024-01-31T05:09:31.883Z,139.75
2024-01-31T05:12:37.462Z,130.50
2024-01-31T05:15:41.441Z,115.75
2024-01-31T05:18:45.895Z,136.25
2024-01-31T05:21:51.601Z,113.50
2024-01-31T05:24:55.850Z,125.25
2024-01-31T05:28:01.432Z,123.50
2024-01-31T05:31:06.423Z,151.25
2024-01-31T05:34:10.650Z,123.25
2024-01-31T05:37:14.840Z,105.75
2024-01-31T05:40:19.904Z,121.00
2024-01-31T05:43:25.613Z,142.75
2024-01-31T05:46:29.373Z,157.75
2024-01-31T05:49:34.091Z,139.75
2024-01-31T05:52:38.023Z,160.00
2024-01-31T05:55:42.794Z,142.75
2024-01-31T05:58:48.267Z,150.75
2024-01-31T06:01:52.796Z,138.50
2024-01-31T06:04:56.691Z,134.00
2024-01-31T06:08:02.278Z,84.25
2024-01-31T06:11:09.957Z,151.25
2024-01-31T06:14:16.263Z,195.50
2024-01-31T06:17:20.336Z,168.25
2024-01-31T06:20:24.390Z,170.50
2024-01-31T06:23:28.775Z,188.50
2024-01-31T06:26:33.844Z,207.50
2024-01-31T06:29:41.177Z,220.00
2024-01-31T06:32:49.100Z,186.00
2024-01-31T06:35:53.155Z,168.00
2024-01-31T06:38:59.862Z,162.75
2024-01-31T06:42:03.669Z,146.75
2024-01-31T06:45:11.217Z,154.50
2024-01-31T06:48:16.626Z,143.50
2024-01-31T06:51:20.843Z,173.00
2024-01-31T06:54:24.668Z,164.50
2024-01-31T06:57:29.027Z,218.25
2024-01-31T07:00:34.260Z,243.75
2024-01-31T07:03:38.448Z,179.00
2024-01-31T07:06:42.301Z,160.75
2024-01-31T07:09:46.566Z,184.75
2024-01-31T07:12:51.814Z,250.25
2024-01-31T07:15:57.319Z,198.00
2024-01-31T07:19:01.336Z,211.00
2024-01-31T07:22:05.977Z,294.00
2024-01-31T07:25:12.339Z,299.25
2024-01-31T07:28:17.216Z,273.75
2024-01-31T07:31:22.655Z,319.75
2024-01-31T07:34:27.062Z,308.00
2024-01-31T07:37:31.379Z,289.00
2024-01-31T07:40:35.997Z,232.75
2024-01-31T07:43:43.539Z,309.50
2024-01-31T07:46:49.951Z,252.75
2024-01-31T07:49:53.719Z,288.25
2024-01-31T07:52:58.201Z,277.75
2024-01-31T07:56:05.461Z,246.25
2024-01-31T07:59:10.395Z,244.00
2024-01-31T08:02:15.713Z,196.75
2024-01-31T08:05:19.963Z,221.50
2024-01-31T08:08:23.998Z,187.00
2024-01-31T08:11:28.683Z,211.25
2024-01-31T08:14:32.560Z,259.50
2024-01-31T08:17:38.485Z,127.00
2024-01-31T08:20:42.312Z,122.50
2024-01-31T08:23:46.660Z,103.25
2024-01-31T08:26:52.233Z,95.67
2024-01-31T08:29:56.760Z,93.67
2024-01-31T08:33:02.858Z,76.67
2024-01-31T08:36:07.446Z,94.00
2024-01-31T08:39:11.413Z,140.25
2024-01-31T08:42:15.837Z,78.00
2024-01-31T08:45:19.690Z,82.67
2024-01-31T08:48:25.780Z,79.00
2024-01-31T08:51:31.862Z,79.67
2024-01-31T08:54:36.424Z,102.33
2024-01-31T08:57:40.551Z,99.67
2024-01-31T09:00:44.804Z,87.33
2024-01-31T09:03:51.765Z,79.00
2024-01-31T09:06:56.383Z,85.67
2024-01-31T09:10:01.012Z,99.33
2024-01-31T09:13:05.798Z,105.67
2024-01-31T09:16:09.889Z,90.33
2024-01-31T09:19:16.092Z,89.67
2024-01-31T09:22:19.967Z,84.67
2024-01-31T09:26:05.292Z,98.00
2024-01-31T09:29:48.974Z,75.00
2024-01-31T09:32:53.861Z,89.00
2024-01-31T09:36:12.288Z,77.33
2024-01-31T09:39:16.617Z,75.00
2024-01-31T09:42:20.466Z,71.00
2024-01-31T09:45:26.486Z,69.67
2024-01-31T09:48:32.056Z,144.50
2024-01-31T09:51:38.891Z,74.67
2024-01-31T09:54:45.275Z,68.33
2024-01-31T09:57:49.558Z,89.67
2024-01-31T10:00:56.846Z,71.67
2024-01-31T10:04:04.530Z,60.67
2024-01-31T10:07:11.263Z,63.50
2024-01-31T10:10:15.508Z,59.50
2024-01-31T10:13:19.460Z,65.50
2024-01-31T10:16:23.741Z,71.67
2024-01-31T10:19:27.686Z,65.50
2024-01-31T10:22:33.992Z,62.00
2024-01-31T10:25:38.296Z,53.00
2024-01-31T10:28:45.773Z,49.25
2024-01-31T10:31:55.051Z,56.00
2024-01-31T10:35:21.515Z,46.75
2024-01-31T10:38:27.408Z,62.75
2024-01-31T10:41:34.261Z,45.00
2024-01-31T10:44:39.927Z,50.00
2024-01-31T10:47:45.934Z,50.50
2024-01-31T10:50:52.367Z,51.00
2024-01-31T10:53:59.153Z,55.50
2024-01-31T10:57:06.094Z,65.00
2024-01-31T11:00:13.006Z,66.50
2024-01-31T11:03:18.128Z,67.00
2024-01-31T11:06:26.850Z,56.50
2024-01-31T11:09:32.098Z,55.00
2024-01-31T11:12:37.988Z,54.75
2024-01-31T11:15:42.807Z,63.50
2024-01-31T11:18:52.890Z,59.00
2024-01-31T11:21:56.924Z,54.00
2024-01-31T11:25:05.330Z,55.25
2024-01-31T11:28:11.113Z,56.00
2024-01-31T11:31:15.673Z,55.75
2024-01-31T11:34:19.875Z,63.25
2024-01-31T11:37:24.073Z,55.50
2024-01-31T11:40:29.795Z,51.25
2024-01-31T11:43:36.433Z,67.50
2024-01-31T11:46:41.075Z,55.75
2024-01-31T11:49:46.352Z,58.75
2024-01-31T11:52:55.744Z,65.00
2024-01-31T11:56:01.866Z,58.50
2024-01-31T11:59:07.042Z,138.33
2024-01-31T12:02:12.202Z,64.00
2024-01-31T12:05:16.510Z,80.00
2024-01-31T12:08:24.904Z,99.00
2024-01-31T12:11:30.438Z,64.00
2024-01-31T12:14:34.789Z,46.75
2024-01-31T12:17:41.660Z,50.50
2024-01-31T12:20:45.933Z,65.00
2024-01-31T12:23:50.095Z,74.75
2024-01-31T12:26:56.277Z,49.50
2024-01-31T12:30:00.405Z,60.00
2024-01-31T12:33:05.233Z,59.50
2024-01-31T12:36:12.301Z,23.25
2024-01-31T12:39:20.501Z,40.25
2024-01-31T12:42:26.093Z,44.25
2024-01-31T12:45:30.944Z,39.50
2024-01-31T12:48:35.986Z,29.50
2024-01-31T12:51:40.817Z,27.00
2024-01-31T12:54:44.735Z,27.75
2024-01-31T12:57:50.416Z,19.25
2024-01-31T13:00:54.322Z,29.50
2024-01-31T13:03:58.597Z,12.50
2024-01-31T13:07:03.669Z,26.25
2024-01-31T13:10:09.526Z,29.00
2024-01-31T13:13:14.700Z,21.75
2024-01-31T13:16:18.738Z,18.25
2024-01-31T13:19:23.709Z,45.75
2024-01-31T13:22:28.081Z,49.50
2024-01-31T13:25:31.923Z,26.00
2024-01-31T13:28:38.934Z,35.25
2024-01-31T13:31:42.723Z,30.75
2024-01-31T13:34:46.733Z,39.50
2024-01-31T13:37:50.662Z,37.50
2024-01-31T13:40:55.339Z,41.75
2024-01-31T13:44:00.601Z,22.25
2024-01-31T13:47:05.713Z,36.00
2024-01-31T13:50:10.067Z,33.25
2024-01-31T13:53:13.930Z,34.00
2024-01-31T13:56:17.636Z,38.75
2024-01-31T13:59:23.151Z,37.75
2024-01-31T14:02:26.943Z,39.75
2024-01-31T14:05:31.186Z,30.75
2024-01-31T14:08:35.002Z,26.25
2024-01-31T14:11:39.452Z,26.50
2024-01-31T14:14:45.790Z,39.00
2024-01-31T14:17:51.442Z,38.50
2024-01-31T14:20:55.393Z,25.25
2024-01-31T14:24:05.206Z,31.00
2024-01-31T14:27:16.165Z,36.50
2024-01-31T14:30:21.673Z,53.25
2024-01-31T14:33:25.463Z,37.75
2024-01-31T14:36:29.962Z,48.75
2024-01-31T14:39:33.681Z,49.50
2024-01-31T14:42:38.367Z,61.50
2024-01-31T14:45:46.205Z,55.25
2024-01-31T14:48:51.206Z,68.25
2024-01-31T14:51:56.436Z,100.00
2024-01-31T14:55:00.834Z,115.33
2024-01-31T14:58:05.452Z,76.00
2024-01-31T15:01:11.440Z,63.25
2024-01-31T15:04:15.325Z,51.75
2024-01-31T15:07:19.449Z,67.75
2024-01-31T15:10:23.097Z,62.50
2024-01-31T15:13:27.037Z,69.25
2024-01-31T15:16:32.488Z,81.67
2024-01-31T15:19:36.959Z,58.75
2024-01-31T15:22:40.866Z,53.25
2024-01-31T15:25:45.015Z,58.25
2024-01-31T15:28:48.989Z,61.50
2024-01-31T15:31:55.831Z,70.00
2024-01-31T15:34:59.901Z,72.33
2024-01-31T15:38:04.366Z,69.25
2024-01-31T15:41:09.862Z,65.25
2024-01-31T15:44:15.381Z,63.50
2024-01-31T15:47:20.721Z,60.00
2024-01-31T15:50:24.866Z,46.00
2024-01-31T15:53:28.743Z,54.50
2024-01-31T15:56:32.978Z,55.00
2024-01-31T15:59:36.704Z,57.00
2024-01-31T16:02:42.079Z,57.25
2024-01-31T16:05:46.012Z,53.00
2024-01-31T16:08:50.223Z,66.50
2024-01-31T16:11:54.115Z,83.33
2024-01-31T16:14:58.734Z,82.00
2024-01-31T16:18:09.532Z,57.75
2024-01-31T16:21:14.192Z,67.75
2024-01-31T16:24:18.478Z,59.00
2024-01-31T16:27:22.628Z,71.67
2024-01-31T16:30:26.400Z,53.00
2024-01-31T16:33:34.582Z,127.33
2024-01-31T16:36:38.372Z,108.67
2024-01-31T16:39:45.413Z,100.00
2024-01-31T16:42:49.475Z,79.33
2024-01-31T16:45:53.452Z,66.67
2024-01-31T16:49:00.107Z,75.33
2024-01-31T16:52:04.318Z,76.67
2024-01-31T16:55:08.411Z,66.75
2024-01-31T16:58:12.440Z,69.00
2024-01-31T17:01:17.059Z,63.67
2024-01-31T17:04:22.510Z,57.00
2024-01-31T17:07:26.330Z,104.00
2024-01-31T17:10:30.438Z,69.67
2024-01-31T17:13:34.389Z,81.67
2024-01-31T17:16:44.072Z,76.33
2024-01-31T17:19:49.756Z,60.67
2024-01-31T17:22:54.374Z,65.33
2024-01-31T17:25:57.964Z,92.67
2024-01-31T17:29:02.293Z,97.00
2024-01-31T17:32:07.014Z,86.00
2024-01-31T17:35:12.930Z,71.67
2024-01-31T17:38:16.640Z,154.50
2024-01-31T17:41:21.558Z,133.50
2024-01-31T17:44:25.495Z,109.00
2024-01-31T17:47:29.905Z,70.00
2024-01-31T17:50:35.531Z,68.33
2024-01-31T17:53:39.777Z,73.33
2024-01-31T17:56:46.698Z,69.00
2024-01-31T17:59:50.850Z,66.67
2024-01-31T18:02:54.941Z,64.33
2024-01-31T18:06:00.644Z,69.00
2024-01-31T18:09:07.639Z,59.67
2024-01-31T18:12:19.037Z,70.33
2024-01-31T18:15:29.741Z,61.67
2024-01-31T18:18:34.150Z,62.33
2024-01-31T18:21:40.748Z,83.00
2024-01-31T18:24:44.756Z,62.50
2024-01-31T18:27:48.455Z,64.67
2024-01-31T18:30:52.340Z,71.33
2024-01-31T18:33:57.636Z,80.33
2024-01-31T18:37:04.074Z,112.00
2024-01-31T18:40:09.738Z,105.67
2024-01-31T18:43:14.180Z,137.50
2024-01-31T18:46:18.253Z,76.00
2024-01-31T18:49:22.819Z,83.33
2024-01-31T18:52:28.319Z,78.00
2024-01-31T18:55:32.692Z,93.67
2024-01-31T18:58:36.647Z,248.50
2024-01-31T19:01:40.792Z,119.00
2024-01-31T19:04:51.134Z,75.67
2024-01-31T19:08:01.484Z,92.00
2024-01-31T19:11:05.475Z,97.67
2024-01-31T19:14:19.211Z,76.67
2024-01-31T19:17:27.932Z,69.67
2024-01-31T19:20:34.598Z,111.50
2024-01-31T19:23:39.853Z,69.00
2024-01-31T19:26:44.322Z,57.33
2024-01-31T19:29:48.048Z,60.00
2024-01-31T19:32:53.223Z,60.33
2024-01-31T19:35:57.015Z,80.67
2024-01-31T19:39:02.555Z,88.67
2024-01-31T19:42:06.697Z,69.67
2024-01-31T19:45:11.704Z,107.25
2024-01-31T19:48:15.891Z,97.25
2024-01-31T19:51:20.365Z,79.67
2024-01-31T19:54:26.009Z,149.25
2024-01-31T19:57:30.945Z,76.00
2024-01-31T20:00:34.890Z,65.33
2024-01-31T20:03:40.601Z,63.33
2024-01-31T20:06:44.615Z,64.33
2024-01-31T20:09:50.205Z,64.00
2024-01-31T20:12:54.236Z,72.33
2024-01-31T20:15:58.522Z,110.00
2024-01-31T20:19:04.235Z,103.75
2024-01-31T20:22:08.712Z,110.00
2024-01-31T20:25:13.795Z,94.75
2024-01-31T20:28:17.946Z,104.00
2024-01-31T20:31:21.741Z,110.00
2024-01-31T20:34:26.281Z,79.00
2024-01-31T20:37:30.061Z,88.67
2024-01-31T20:40:35.683Z,95.00
2024-01-31T20:43:39.506Z,80.33
2024-01-31T20:46:44.629Z,81.67
2024-01-31T20:49:50.151Z,94.75
2024-01-31T20:52:54.193Z,66.00
2024-01-31T20:56:00.238Z,69.00
2024-01-31T20:59:05.150Z,19.00
2024-01-31T21:02:08.839Z,97.50
2024-01-31T21:05:13.441Z,124.75
2024-01-31T21:08:17.698Z,100.50
2024-01-31T21:11:23.584Z,120.50
2024-01-31T21:14:28.602Z,102.50
2024-01-31T21:17:32.750Z,115.00
2024-01-31T21:20:36.780Z,138.00
2024-01-31T21:23:41.069Z,92.67
2024-01-31T21:26:46.549Z,72.00
2024-01-31T21:29:52.856Z,96.75
2024-01-31T21:32:56.736Z,185.00
2024-01-31T21:36:01.115Z,72.33
2024-01-31T21:39:05.351Z,69.33
2024-01-31T21:42:11.522Z,104.75
2024-01-31T21:45:15.468Z,130.00
2024-01-31T21:48:19.908Z,105.50
2024-01-31T21:51:23.951Z,114.25
2024-01-31T21:54:27.992Z,79.67
2024-01-31T21:57:33.565Z,75.33
2024-01-31T22:00:37.668Z,78.67
2024-01-31T22:03:50.173Z,97.50
2024-01-31T22:07:04.122Z,74.33
2024-01-31T22:10:08.526Z,77.67
2024-01-31T22:13:14.196Z,79.33
2024-01-31T22:16:18.082Z,81.67
2024-01-31T22:19:22.537Z,85.00
2024-01-31T22:22:26.384Z,95.33
2024-01-31T22:25:30.632Z,9.33
2024-01-31T22:28:35.702Z,94.75
2024-01-31T22:31:44.244Z,75.00
2024-01-31T22:34:48.120Z,75.33
2024-01-31T22:37:52.381Z,78.67
2024-01-31T22:40:59.742Z,86.67
2024-01-31T22:44:07.881Z,81.50
2024-01-31T22:47:11.614Z,87.33
2024-01-31T22:50:16.550Z,79.00
2024-01-31T22:53:20.318Z,75.67
2024-01-31T22:56:24.432Z,76.00
2024-01-31T22:59:29.630Z,69.00
2024-01-31T23:02:34.559Z,69.67
2024-01-31T23:05:38.449Z,69.67
2024-01-31T23:08:42.565Z,73.00
2024-01-31T23:11:46.741Z,75.67
2024-01-31T23:14:52.347Z,78.33
2024-01-31T23:17:56.275Z,78.00
2024-01-31T23:21:01.898Z,72.67
2024-01-31T23:24:06.337Z,78.67
2024-01-31T23:27:14.519Z,79.75
2024-01-31T23:30:19.783Z,93.25
2024-01-31T23:33:23.926Z,100.50
2024-01-31T23:36:29.802Z,87.67
2024-01-31T23:39:34.040Z,75.67
2024-01-31T23:42:37.929Z,68.33
2024-01-31T23:45:43.354Z,70.00
2024-01-31T23:48:47.607Z,76.33
2024-01-31T23:51:51.723Z,81.00
2024-01-31T23:54:55.505Z,75.67
2024-01-31T23:57:59.649Z,86.00
